PWSweather.com
Personal Weather Stations
Station Observations
ITORSHLL5
TorshällaSE

TorshällaSE

Lat: 59.41181946, Lon: 16.48669243

Elevation: 49

Station Type:

Latest ConditionsUpdated 7:45:00 PM GMT+01:01 Saturday, Aug 24, 2019
Currently Today's Max Today's Min Today's Average
Temperature 67.1°F19.5°C 79.7°F26.5°C 57.9°F14.4°C 67.7°F19.8°C
Dew Point 28.1°F-2.2°C 53.7°F12.1°C 13.8°F-10.1°C 35.7°F2.1°C
Winds Calm Calm 9.2 mph -14.8 kmh - - 3.9 mph 6.3 kmh
Wind Gusts 3.1 mph5.0 kmh 9.8 mph15.8 kmh - -
Humidity 23% 75% 10% 39%
Pressure 30.23 in1023.7 mb 30.23 in1023.7 mb 30.07 in1018.3 mb -
Hour Temp Dew Point Humidity Winds Wind Gusts Pressure Precip Precip Rate Daily Precip Total
07:45 PM 67.1°F19.5°C 28.1°F-2.2°C 23% Calm Calm 3.1 mph5.0 kmh 30.23 in1023.7 mb 0.00 in0.0 mm 0.00 in0.0 mm 0.00 in0.0 mm
07:40 PM 67.6°F19.8°C 27.5°F-2.5°C 22% 0.7 mph S1.1 kmh S 3.8 mph6.1 kmh 30.23 in1023.7 mb 0.00 in0.0 mm 0.00 in0.0 mm 0.00 in0.0 mm
07:35 PM 68.0°F20.0°C 27.8°F-2.3°C 22% 3.1 mph E5.0 kmh E 3.8 mph6.1 kmh 30.23 in1023.7 mb 0.00 in0.0 mm 0.00 in0.0 mm 0.00 in0.0 mm
07:30 PM 68.2°F20.1°C 26.8°F-2.9°C 21% 3.1 mph E5.0 kmh E 3.1 mph5.0 kmh 30.23 in1023.7 mb 0.00 in0.0 mm 0.00 in0.0 mm 0.00 in0.0 mm
07:25 PM 68.5°F20.3°C 27.1°F-2.7°C 21% 2.2 mph E3.5 kmh E 3.1 mph5.0 kmh 30.23 in1023.7 mb 0.00 in0.0 mm 0.00 in0.0 mm 0.00 in0.0 mm
07:20 PM 68.7°F20.4°C 27.2°F-2.7°C 21% 1.6 mph NE2.6 kmh NE 3.1 mph5.0 kmh 30.22 in1023.4 mb 0.00 in0.0 mm 0.00 in0.0 mm 0.00 in0.0 mm
07:15 PM 68.9°F20.5°C 26.2°F-3.2°C 20% 2.2 mph E3.5 kmh E 3.1 mph5.0 kmh 30.22 in1023.4 mb 0.00 in0.0 mm 0.00 in0.0 mm 0.00 in0.0 mm
07:10 PM 69.3°F20.7°C 26.5°F-3.1°C 20% 2.2 mph E3.5 kmh E 2.2 mph3.5 kmh 30.22 in1023.4 mb 0.00 in0.0 mm 0.00 in0.0 mm 0.00 in0.0 mm
07:05 PM 70.0°F21.1°C 24.6°F-4.1°C 18% 2.2 mph E3.5 kmh E 3.8 mph6.1 kmh 30.22 in1023.4 mb 0.00 in0.0 mm 0.00 in0.0 mm 0.00 in0.0 mm
07:00 PM 70.0°F21.1°C 24.6°F-4.1°C 18% 2.2 mph E3.5 kmh E 3.8 mph6.1 kmh 30.22 in1023.4 mb 0.00 in0.0 mm 0.00 in0.0 mm 0.00 in0.0 mm
06:55 PM 70.5°F21.4°C 25.0°F-3.9°C 18% 2.2 mph SE3.5 kmh SE 4.5 mph7.2 kmh 30.22 in1023.4 mb 0.00 in0.0 mm 0.00 in0.0 mm 0.00 in0.0 mm
06:50 PM 70.7°F21.5°C 23.8°F-4.6°C 17% 3.8 mph NE6.1 kmh NE 4.5 mph7.2 kmh 30.22 in1023.4 mb 0.00 in0.0 mm 0.00 in0.0 mm 0.00 in0.0 mm
06:45 PM 71.2°F21.8°C 22.8°F-5.1°C 16% 3.1 mph E5.0 kmh E 3.1 mph5.0 kmh 30.23 in1023.7 mb 0.00 in0.0 mm 0.00 in0.0 mm 0.00 in0.0 mm
06:40 PM 71.6°F22.0°C 21.5°F-5.8°C 15% 2.2 mph SE3.5 kmh SE 3.1 mph5.0 kmh 30.23 in1023.7 mb 0.00 in0.0 mm 0.00 in0.0 mm 0.00 in0.0 mm
06:35 PM 72.1°F22.3°C 20.4°F-6.4°C 14% 2.2 mph SE3.5 kmh SE 3.8 mph6.1 kmh 30.23 in1023.7 mb 0.00 in0.0 mm 0.00 in0.0 mm 0.00 in0.0 mm
06:30 PM 72.7°F22.6°C 17.2°F-8.2°C 12% 2.2 mph E3.5 kmh E 4.5 mph7.2 kmh 30.22 in1023.4 mb 0.00 in0.0 mm 0.00 in0.0 mm 0.00 in0.0 mm
06:25 PM 73.8°F23.2°C 13.8°F-10.1°C 10% 3.8 mph E6.1 kmh E 4.5 mph7.2 kmh 30.22 in1023.4 mb 0.00 in0.0 mm 0.00 in0.0 mm 0.00 in0.0 mm
06:20 PM 75.2°F24.0°C 14.9°F-9.5°C 10% 2.2 mph SE3.5 kmh SE 3.1 mph5.0 kmh 30.22 in1023.4 mb 0.00 in0.0 mm 0.00 in0.0 mm 0.00 in0.0 mm
06:15 PM 77.0°F25.0°C 16.3°F-8.7°C 10% 0.7 mph SE1.1 kmh SE 3.1 mph5.0 kmh 30.22 in1023.4 mb 0.00 in0.0 mm 0.00 in0.0 mm 0.00 in0.0 mm
06:10 PM 78.3°F25.7°C 17.3°F-8.2°C 10% Calm Calm 2.2 mph3.5 kmh 30.22 in1023.4 mb 0.00 in0.0 mm 0.00 in0.0 mm 0.00 in0.0 mm
06:05 PM 77.0°F25.0°C 16.3°F-8.7°C 10% 2.2 mph SE3.5 kmh SE 4.5 mph7.2 kmh 30.22 in1023.4 mb 0.00 in0.0 mm 0.00 in0.0 mm 0.00 in0.0 mm
06:00 PM 77.0°F25.0°C 16.3°F-8.7°C 10% 2.2 mph SE3.5 kmh SE 5.4 mph8.7 kmh 30.22 in1023.4 mb 0.00 in0.0 mm 0.00 in0.0 mm 0.00 in0.0 mm
05:55 PM 77.2°F25.1°C 16.5°F-8.6°C 10% 4.5 mph E7.2 kmh E 5.4 mph8.7 kmh 30.22 in1023.4 mb 0.00 in0.0 mm 0.00 in0.0 mm 0.00 in0.0 mm
05:50 PM 77.2°F25.1°C 16.5°F-8.6°C 10% 1.6 mph S2.6 kmh S 3.8 mph6.1 kmh 30.22 in1023.4 mb 0.00 in0.0 mm 0.00 in0.0 mm 0.00 in0.0 mm
05:45 PM 77.0°F25.0°C 16.3°F-8.7°C 10% 3.1 mph S5.0 kmh S 4.5 mph7.2 kmh 30.22 in1023.4 mb 0.00 in0.0 mm 0.00 in0.0 mm 0.00 in0.0 mm
05:40 PM 76.6°F24.8°C 16.0°F-8.9°C 10% 2.2 mph W3.5 kmh W 6.0 mph9.7 kmh 30.22 in1023.4 mb 0.00 in0.0 mm 0.00 in0.0 mm 0.00 in0.0 mm
05:35 PM 76.6°F24.8°C 16.0°F-8.9°C 10% 3.8 mph SE6.1 kmh SE 6.0 mph9.7 kmh 30.22 in1023.4 mb 0.00 in0.0 mm 0.00 in0.0 mm 0.00 in0.0 mm
05:30 PM 77.0°F25.0°C 16.3°F-8.7°C 10% 3.8 mph S6.1 kmh S 6.9 mph11.1 kmh 30.22 in1023.4 mb 0.00 in0.0 mm 0.00 in0.0 mm 0.00 in0.0 mm
05:25 PM 76.8°F24.9°C 16.2°F-8.8°C 10% 3.8 mph S6.1 kmh S 6.9 mph11.1 kmh 30.22 in1023.4 mb 0.00 in0.0 mm 0.00 in0.0 mm 0.00 in0.0 mm
05:20 PM 77.0°F25.0°C 16.3°F-8.7°C 10% 3.8 mph S6.1 kmh S 6.0 mph9.7 kmh 30.22 in1023.4 mb 0.00 in0.0 mm 0.00 in0.0 mm 0.00 in0.0 mm
05:15 PM 76.5°F24.7°C 15.9°F-8.9°C 10% 4.5 mph S7.2 kmh S 6.0 mph9.7 kmh 30.22 in1023.4 mb 0.00 in0.0 mm 0.00 in0.0 mm 0.00 in0.0 mm
05:10 PM 75.6°F24.2°C 15.2°F-9.3°C 10% 4.5 mph S7.2 kmh S 5.4 mph8.7 kmh 30.22 in1023.4 mb 0.00 in0.0 mm 0.00 in0.0 mm 0.00 in0.0 mm
05:05 PM 76.1°F24.5°C 15.6°F-9.1°C 10% 4.5 mph S7.2 kmh S 7.6 mph12.2 kmh 30.22 in1023.4 mb 0.00 in0.0 mm 0.00 in0.0 mm 0.00 in0.0 mm
05:00 PM 76.1°F24.5°C 15.6°F-9.1°C 10% 4.5 mph S7.2 kmh S 7.6 mph12.2 kmh 30.22 in1023.4 mb 0.00 in0.0 mm 0.00 in0.0 mm 0.00 in0.0 mm
04:55 PM 77.0°F25.0°C 16.3°F-8.7°C 10% 5.4 mph SE8.7 kmh SE 6.0 mph9.7 kmh 30.22 in1023.4 mb 0.00 in0.0 mm 0.00 in0.0 mm 0.00 in0.0 mm
04:50 PM 77.0°F25.0°C 16.3°F-8.7°C 10% 4.5 mph S7.2 kmh S 6.0 mph9.7 kmh 30.23 in1023.7 mb 0.00 in0.0 mm 0.00 in0.0 mm 0.00 in0.0 mm
04:45 PM 77.5°F25.3°C 16.7°F-8.5°C 10% 3.8 mph S6.1 kmh S 5.4 mph8.7 kmh 30.22 in1023.4 mb 0.00 in0.0 mm 0.00 in0.0 mm 0.00 in0.0 mm
04:40 PM 77.9°F25.5°C 17.0°F-8.3°C 10% 3.1 mph S5.0 kmh S 5.4 mph8.7 kmh 30.22 in1023.4 mb 0.00 in0.0 mm 0.00 in0.0 mm 0.00 in0.0 mm
04:35 PM 78.1°F25.6°C 17.1°F-8.3°C 10% 3.8 mph S6.1 kmh S 4.5 mph7.2 kmh 30.22 in1023.4 mb 0.00 in0.0 mm 0.00 in0.0 mm 0.00 in0.0 mm
04:30 PM 78.8°F26.0°C 17.7°F-7.9°C 10% 4.5 mph SE7.2 kmh SE 4.5 mph7.2 kmh 30.23 in1023.7 mb 0.00 in0.0 mm 0.00 in0.0 mm 0.00 in0.0 mm
04:25 PM 79.0°F26.1°C 17.8°F-7.9°C 10% 2.2 mph W3.5 kmh W 3.8 mph6.1 kmh 30.23 in1023.7 mb 0.00 in0.0 mm 0.00 in0.0 mm 0.00 in0.0 mm
04:20 PM 77.4°F25.2°C 16.6°F-8.6°C 10% 1.6 mph SE2.6 kmh SE 4.5 mph7.2 kmh 30.23 in1023.7 mb 0.00 in0.0 mm 0.00 in0.0 mm 0.00 in0.0 mm
04:15 PM 77.4°F25.2°C 16.6°F-8.6°C 10% 3.8 mph NE6.1 kmh NE 4.5 mph7.2 kmh 30.23 in1023.7 mb 0.00 in0.0 mm 0.00 in0.0 mm 0.00 in0.0 mm
04:10 PM 77.2°F25.1°C 16.5°F-8.6°C 10% 4.5 mph NE7.2 kmh NE 4.5 mph7.2 kmh 30.23 in1023.7 mb 0.00 in0.0 mm 0.00 in0.0 mm 0.00 in0.0 mm
04:05 PM 75.0°F23.9°C 14.8°F-9.6°C 10% 1.6 mph N2.6 kmh N 4.5 mph7.2 kmh 30.22 in1023.4 mb 0.00 in0.0 mm 0.00 in0.0 mm 0.00 in0.0 mm
04:00 PM 75.0°F23.9°C 14.8°F-9.6°C 10% 1.6 mph N2.6 kmh N 4.5 mph7.2 kmh 30.22 in1023.4 mb 0.00 in0.0 mm 0.00 in0.0 mm 0.00 in0.0 mm
03:55 PM 75.0°F23.9°C 14.8°F-9.6°C 10% 4.5 mph E7.2 kmh E 4.5 mph7.2 kmh 30.22 in1023.4 mb 0.00 in0.0 mm 0.00 in0.0 mm 0.00 in0.0 mm
03:50 PM 75.9°F24.4°C 15.5°F-9.2°C 10% 3.8 mph ENE6.1 kmh ENE 3.8 mph6.1 kmh 30.22 in1023.4 mb 0.00 in0.0 mm 0.00 in0.0 mm 0.00 in0.0 mm
03:45 PM 76.5°F24.7°C 15.9°F-8.9°C 10% 3.8 mph N6.1 kmh N 4.5 mph7.2 kmh 30.23 in1023.7 mb 0.00 in0.0 mm 0.00 in0.0 mm 0.00 in0.0 mm
03:40 PM 76.5°F24.7°C 15.9°F-8.9°C 10% 3.1 mph NNE5.0 kmh NNE 4.5 mph7.2 kmh 30.23 in1023.7 mb 0.00 in0.0 mm 0.00 in0.0 mm 0.00 in0.0 mm
03:35 PM 76.5°F24.7°C 15.9°F-8.9°C 10% 2.2 mph NE3.5 kmh NE 3.8 mph6.1 kmh 30.23 in1023.7 mb 0.00 in0.0 mm 0.00 in0.0 mm 0.00 in0.0 mm
03:30 PM 77.2°F25.1°C 16.5°F-8.6°C 10% 3.1 mph SE5.0 kmh SE 3.1 mph5.0 kmh 30.23 in1023.7 mb 0.00 in0.0 mm 0.00 in0.0 mm 0.00 in0.0 mm
03:25 PM 77.7°F25.4°C 16.9°F-8.4°C 10% 2.2 mph NW3.5 kmh NW 3.8 mph6.1 kmh 30.23 in1023.7 mb 0.00 in0.0 mm 0.00 in0.0 mm 0.00 in0.0 mm
03:20 PM 78.4°F25.8°C 17.4°F-8.1°C 10% 3.1 mph NW5.0 kmh NW 3.8 mph6.1 kmh 30.23 in1023.7 mb 0.00 in0.0 mm 0.00 in0.0 mm 0.00 in0.0 mm
03:15 PM 77.9°F25.5°C 17.0°F-8.3°C 10% 1.6 mph NE2.6 kmh NE 4.5 mph7.2 kmh 30.23 in1023.7 mb 0.00 in0.0 mm 0.00 in0.0 mm 0.00 in0.0 mm
03:10 PM 76.6°F24.8°C 16.0°F-8.9°C 10% 3.1 mph N5.0 kmh N 4.5 mph7.2 kmh 30.23 in1023.7 mb 0.00 in0.0 mm 0.00 in0.0 mm 0.00 in0.0 mm
03:05 PM 77.4°F25.2°C 16.6°F-8.6°C 10% 3.8 mph W6.1 kmh W 4.5 mph7.2 kmh 30.23 in1023.7 mb 0.00 in0.0 mm 0.00 in0.0 mm 0.00 in0.0 mm
03:00 PM 77.4°F25.2°C 16.6°F-8.6°C 10% 3.8 mph W6.1 kmh W 4.5 mph7.2 kmh 30.23 in1023.7 mb 0.00 in0.0 mm 0.00 in0.0 mm 0.00 in0.0 mm
02:55 PM 79.0°F26.1°C 17.8°F-7.9°C 10% 3.8 mph NW6.1 kmh NW 4.5 mph7.2 kmh 30.23 in1023.7 mb 0.00 in0.0 mm 0.00 in0.0 mm 0.00 in0.0 mm
02:50 PM 79.7°F26.5°C 18.4°F-7.6°C 10% 2.2 mph N3.5 kmh N 3.8 mph6.1 kmh 30.23 in1023.7 mb 0.00 in0.0 mm 0.00 in0.0 mm 0.00 in0.0 mm
02:45 PM 79.0°F26.1°C 17.8°F-7.9°C 10% 2.2 mph S3.5 kmh S 5.4 mph8.7 kmh 30.23 in1023.7 mb 0.00 in0.0 mm 0.00 in0.0 mm 0.00 in0.0 mm
02:40 PM 78.4°F25.8°C 17.4°F-8.1°C 10% 2.2 mph NE3.5 kmh NE 5.4 mph8.7 kmh 30.23 in1023.7 mb 0.00 in0.0 mm 0.00 in0.0 mm 0.00 in0.0 mm
02:35 PM 77.7°F25.4°C 16.9°F-8.4°C 10% 5.4 mph NE8.7 kmh NE 5.4 mph8.7 kmh 30.23 in1023.7 mb 0.00 in0.0 mm 0.00 in0.0 mm 0.00 in0.0 mm
02:30 PM 78.1°F25.6°C 17.1°F-8.3°C 10% 3.1 mph NNE5.0 kmh NNE 4.5 mph7.2 kmh 30.22 in1023.4 mb 0.00 in0.0 mm 0.00 in0.0 mm 0.00 in0.0 mm
02:25 PM 77.2°F25.1°C 16.5°F-8.6°C 10% 1.6 mph E2.6 kmh E 5.4 mph8.7 kmh 30.22 in1023.4 mb 0.00 in0.0 mm 0.00 in0.0 mm 0.00 in0.0 mm
02:20 PM 75.6°F24.2°C 15.2°F-9.3°C 10% 3.8 mph NW6.1 kmh NW 5.4 mph8.7 kmh 30.23 in1023.7 mb 0.00 in0.0 mm 0.00 in0.0 mm 0.00 in0.0 mm
02:15 PM 75.9°F24.4°C 15.5°F-9.2°C 10% 4.5 mph NW7.2 kmh NW 4.5 mph7.2 kmh 30.22 in1023.4 mb 0.00 in0.0 mm 0.00 in0.0 mm 0.00 in0.0 mm
02:10 PM 76.6°F24.8°C 16.0°F-8.9°C 10% 4.5 mph NW7.2 kmh NW 4.5 mph7.2 kmh 30.23 in1023.7 mb 0.00 in0.0 mm 0.00 in0.0 mm 0.00 in0.0 mm
02:05 PM 78.6°F25.9°C 17.6°F-8.0°C 10% 1.6 mph N2.6 kmh N 5.4 mph8.7 kmh 30.23 in1023.7 mb 0.00 in0.0 mm 0.00 in0.0 mm 0.00 in0.0 mm
02:00 PM 78.6°F25.9°C 17.6°F-8.0°C 10% 1.6 mph N2.6 kmh N 5.4 mph8.7 kmh 30.22 in1023.4 mb 0.00 in0.0 mm 0.00 in0.0 mm 0.00 in0.0 mm
01:55 PM 78.8°F26.0°C 17.7°F-7.9°C 10% 3.1 mph N5.0 kmh N 5.4 mph8.7 kmh 30.22 in1023.4 mb 0.00 in0.0 mm 0.00 in0.0 mm 0.00 in0.0 mm
01:50 PM 78.4°F25.8°C 17.4°F-8.1°C 10% 4.5 mph NW7.2 kmh NW 5.4 mph8.7 kmh 30.23 in1023.7 mb 0.00 in0.0 mm 0.00 in0.0 mm 0.00 in0.0 mm
01:45 PM 77.2°F25.1°C 16.5°F-8.6°C 10% 3.1 mph NW5.0 kmh NW 5.4 mph8.7 kmh 30.22 in1023.4 mb 0.00 in0.0 mm 0.00 in0.0 mm 0.00 in0.0 mm
01:40 PM 78.1°F25.6°C 17.1°F-8.3°C 10% 3.8 mph NE6.1 kmh NE 4.5 mph7.2 kmh 30.22 in1023.4 mb 0.00 in0.0 mm 0.00 in0.0 mm 0.00 in0.0 mm
01:35 PM 77.5°F25.3°C 18.9°F-7.3°C 11% 3.8 mph NW6.1 kmh NW 4.5 mph7.2 kmh 30.22 in1023.4 mb 0.00 in0.0 mm 0.00 in0.0 mm 0.00 in0.0 mm
01:30 PM 76.5°F24.7°C 25.4°F-3.7°C 15% 0.7 mph NW1.1 kmh NW 6.9 mph11.1 kmh 30.22 in1023.4 mb 0.00 in0.0 mm 0.00 in0.0 mm 0.00 in0.0 mm
01:25 PM 74.8°F23.8°C 24.1°F-4.4°C 15% 3.8 mph N6.1 kmh N 6.9 mph11.1 kmh 30.22 in1023.4 mb 0.00 in0.0 mm 0.00 in0.0 mm 0.00 in0.0 mm
01:20 PM 74.8°F23.8°C 25.7°F-3.5°C 16% 6.0 mph NW9.7 kmh NW 6.9 mph11.1 kmh 30.22 in1023.4 mb 0.00 in0.0 mm 0.00 in0.0 mm 0.00 in0.0 mm
01:15 PM 74.8°F23.8°C 29.9°F-1.2°C 19% 3.1 mph NW5.0 kmh NW 7.6 mph12.2 kmh 30.22 in1023.4 mb 0.00 in0.0 mm 0.00 in0.0 mm 0.00 in0.0 mm
01:10 PM 74.1°F23.4°C 30.5°F-0.8°C 20% 4.5 mph NE7.2 kmh NE 7.6 mph12.2 kmh 30.22 in1023.4 mb 0.00 in0.0 mm 0.00 in0.0 mm 0.00 in0.0 mm
01:05 PM 73.9°F23.3°C 31.6°F-0.2°C 21% 3.1 mph N5.0 kmh N 6.9 mph11.1 kmh 30.23 in1023.7 mb 0.00 in0.0 mm 0.00 in0.0 mm 0.00 in0.0 mm
01:00 PM 73.9°F23.3°C 31.6°F-0.2°C 21% 3.1 mph N5.0 kmh N 6.9 mph11.1 kmh 30.23 in1023.7 mb 0.00 in0.0 mm 0.00 in0.0 mm 0.00 in0.0 mm
12:55 PM 73.4°F23.0°C 29.9°F-1.2°C 20% 6.9 mph N11.1 kmh N 6.9 mph11.1 kmh 30.23 in1023.7 mb 0.00 in0.0 mm 0.00 in0.0 mm 0.00 in0.0 mm
12:50 PM 73.6°F23.1°C 31.3°F-0.4°C 21% 6.0 mph N9.7 kmh N 6.9 mph11.1 kmh 30.22 in1023.4 mb 0.00 in0.0 mm 0.00 in0.0 mm 0.00 in0.0 mm
12:45 PM 73.8°F23.2°C 30.2°F-1.0°C 20% 5.4 mph WNW8.7 kmh WNW 5.4 mph8.7 kmh 30.23 in1023.7 mb 0.00 in0.0 mm 0.00 in0.0 mm 0.00 in0.0 mm
12:40 PM 74.1°F23.4°C 32.9°F0.5°C 22% 4.5 mph N7.2 kmh N 5.4 mph8.7 kmh 30.22 in1023.4 mb 0.00 in0.0 mm 0.00 in0.0 mm 0.00 in0.0 mm
12:35 PM 73.0°F22.8°C 34.1°F1.2°C 24% 5.4 mph NW8.7 kmh NW 6.0 mph9.7 kmh 30.23 in1023.7 mb 0.00 in0.0 mm 0.00 in0.0 mm 0.00 in0.0 mm
12:30 PM 72.5°F22.5°C 33.7°F0.9°C 24% 5.4 mph NW8.7 kmh NW 6.0 mph9.7 kmh 30.23 in1023.7 mb 0.00 in0.0 mm 0.00 in0.0 mm 0.00 in0.0 mm
12:25 PM 71.8°F22.1°C 34.1°F1.2°C 25% 3.8 mph N6.1 kmh N 6.0 mph9.7 kmh 30.23 in1023.7 mb 0.00 in0.0 mm 0.00 in0.0 mm 0.00 in0.0 mm
12:20 PM 72.0°F22.2°C 35.2°F1.8°C 26% 6.0 mph N9.7 kmh N 6.0 mph9.7 kmh 30.22 in1023.4 mb 0.00 in0.0 mm 0.00 in0.0 mm 0.00 in0.0 mm
12:15 PM 72.0°F22.2°C 34.3°F1.3°C 25% 4.5 mph NE7.2 kmh NE 6.9 mph11.1 kmh 30.23 in1023.7 mb 0.00 in0.0 mm 0.00 in0.0 mm 0.00 in0.0 mm
12:10 PM 72.0°F22.2°C 35.2°F1.8°C 26% 5.4 mph N8.7 kmh N 6.9 mph11.1 kmh 30.23 in1023.7 mb 0.00 in0.0 mm 0.00 in0.0 mm 0.00 in0.0 mm
12:05 PM 71.6°F22.0°C 34.9°F1.6°C 26% 5.4 mph NW8.7 kmh NW 6.9 mph11.1 kmh 30.23 in1023.7 mb 0.00 in0.0 mm 0.00 in0.0 mm 0.00 in0.0 mm
12:00 PM 71.6°F22.0°C 34.9°F1.6°C 26% 5.4 mph NW8.7 kmh NW 7.6 mph12.2 kmh 30.23 in1023.7 mb 0.00 in0.0 mm 0.00 in0.0 mm 0.00 in0.0 mm
11:55 AM 71.2°F21.8°C 36.5°F2.5°C 28% 3.8 mph WNW6.1 kmh WNW 7.6 mph12.2 kmh 30.23 in1023.7 mb 0.00 in0.0 mm 0.00 in0.0 mm 0.00 in0.0 mm
11:50 AM 71.4°F21.9°C 35.7°F2.1°C 27% 6.0 mph WNW9.7 kmh WNW 6.9 mph11.1 kmh 30.23 in1023.7 mb 0.00 in0.0 mm 0.00 in0.0 mm 0.00 in0.0 mm
11:45 AM 71.6°F22.0°C 34.9°F1.6°C 26% 6.0 mph NW9.7 kmh NW 6.9 mph11.1 kmh 30.23 in1023.7 mb 0.00 in0.0 mm 0.00 in0.0 mm 0.00 in0.0 mm
11:40 AM 71.8°F22.1°C 34.1°F1.2°C 25% 5.4 mph N8.7 kmh N 6.9 mph11.1 kmh 30.23 in1023.7 mb 0.00 in0.0 mm 0.00 in0.0 mm 0.00 in0.0 mm
11:35 AM 72.3°F22.4°C 33.5°F0.8°C 24% 5.4 mph NE8.7 kmh NE 6.9 mph11.1 kmh 30.22 in1023.4 mb 0.00 in0.0 mm 0.00 in0.0 mm 0.00 in0.0 mm
11:30 AM 72.5°F22.5°C 34.7°F1.5°C 25% 3.8 mph S6.1 kmh S 6.0 mph9.7 kmh 30.22 in1023.4 mb 0.00 in0.0 mm 0.00 in0.0 mm 0.00 in0.0 mm
11:25 AM 72.5°F22.5°C 32.6°F0.3°C 23% 4.5 mph N7.2 kmh N 5.4 mph8.7 kmh 30.22 in1023.4 mb 0.00 in0.0 mm 0.00 in0.0 mm 0.00 in0.0 mm
11:20 AM 73.0°F22.8°C 33.1°F0.6°C 23% 4.5 mph N7.2 kmh N 4.5 mph7.2 kmh 30.22 in1023.4 mb 0.00 in0.0 mm 0.00 in0.0 mm 0.00 in0.0 mm
11:15 AM 72.5°F22.5°C 33.7°F0.9°C 24% 2.2 mph NE3.5 kmh NE 3.8 mph6.1 kmh 30.22 in1023.4 mb 0.00 in0.0 mm 0.00 in0.0 mm 0.00 in0.0 mm
11:10 AM 72.5°F22.5°C 33.7°F0.9°C 24% 3.8 mph S6.1 kmh S 3.8 mph6.1 kmh 30.22 in1023.4 mb 0.00 in0.0 mm 0.00 in0.0 mm 0.00 in0.0 mm
11:05 AM 71.4°F21.9°C 36.6°F2.6°C 28% 1.6 mph NW2.6 kmh NW 5.4 mph8.7 kmh 30.22 in1023.4 mb 0.00 in0.0 mm 0.00 in0.0 mm 0.00 in0.0 mm
11:00 AM 71.4°F21.9°C 36.6°F2.6°C 28% 1.6 mph NW2.6 kmh NW 5.4 mph8.7 kmh 30.22 in1023.4 mb 0.00 in0.0 mm 0.00 in0.0 mm 0.00 in0.0 mm
10:55 AM 70.3°F21.3°C 36.6°F2.6°C 29% 4.5 mph NE7.2 kmh NE 4.5 mph7.2 kmh 30.22 in1023.4 mb 0.00 in0.0 mm 0.00 in0.0 mm 0.00 in0.0 mm
10:50 AM 70.0°F21.1°C 36.3°F2.4°C 29% 4.5 mph N7.2 kmh N 5.4 mph8.7 kmh 30.22 in1023.4 mb 0.00 in0.0 mm 0.00 in0.0 mm 0.00 in0.0 mm
10:45 AM 69.6°F20.9°C 36.8°F2.7°C 30% 4.5 mph NE7.2 kmh NE 5.4 mph8.7 kmh 30.22 in1023.4 mb 0.00 in0.0 mm 0.00 in0.0 mm 0.00 in0.0 mm
10:40 AM 69.1°F20.6°C 36.4°F2.4°C 30% 3.8 mph NE6.1 kmh NE 6.0 mph9.7 kmh 30.22 in1023.4 mb 0.00 in0.0 mm 0.00 in0.0 mm 0.00 in0.0 mm
10:35 AM 70.0°F21.1°C 35.4°F1.9°C 28% 4.5 mph NE7.2 kmh NE 6.0 mph9.7 kmh 30.22 in1023.4 mb 0.00 in0.0 mm 0.00 in0.0 mm 0.00 in0.0 mm
10:30 AM 71.4°F21.9°C 36.6°F2.6°C 28% 3.8 mph NE6.1 kmh NE 3.8 mph6.1 kmh 30.22 in1023.4 mb 0.00 in0.0 mm 0.00 in0.0 mm 0.00 in0.0 mm
10:25 AM 70.3°F21.3°C 39.1°F3.9°C 32% 2.2 mph SE3.5 kmh SE 5.4 mph8.7 kmh 30.22 in1023.4 mb 0.00 in0.0 mm 0.00 in0.0 mm 0.00 in0.0 mm
10:20 AM 69.3°F20.7°C 37.4°F3.0°C 31% 3.8 mph N6.1 kmh N 5.4 mph8.7 kmh 30.22 in1023.4 mb 0.00 in0.0 mm 0.00 in0.0 mm 0.00 in0.0 mm
10:15 AM 69.4°F20.8°C 38.3°F3.5°C 32% 3.1 mph NE5.0 kmh NE 4.5 mph7.2 kmh 30.22 in1023.4 mb 0.00 in0.0 mm 0.00 in0.0 mm 0.00 in0.0 mm
10:10 AM 68.5°F20.3°C 37.5°F3.1°C 32% 3.8 mph NW6.1 kmh NW 4.5 mph7.2 kmh 30.22 in1023.4 mb 0.00 in0.0 mm 0.00 in0.0 mm 0.00 in0.0 mm
10:05 AM 68.0°F20.0°C 38.6°F3.7°C 34% 4.5 mph NW7.2 kmh NW 6.9 mph11.1 kmh 30.22 in1023.4 mb 0.00 in0.0 mm 0.00 in0.0 mm 0.00 in0.0 mm
10:00 AM 68.0°F20.0°C 38.6°F3.7°C 34% 4.5 mph NW7.2 kmh NW 6.9 mph11.1 kmh 30.22 in1023.4 mb 0.00 in0.0 mm 0.00 in0.0 mm 0.00 in0.0 mm
09:55 AM 68.7°F20.4°C 42.1°F5.6°C 38% 3.1 mph NW5.0 kmh NW 6.0 mph9.7 kmh 30.21 in1023.0 mb 0.00 in0.0 mm 0.00 in0.0 mm 0.00 in0.0 mm
09:50 AM 67.5°F19.7°C 41.0°F5.0°C 38% 3.1 mph NW5.0 kmh NW 6.0 mph9.7 kmh 30.22 in1023.4 mb 0.00 in0.0 mm 0.00 in0.0 mm 0.00 in0.0 mm
09:45 AM 67.8°F19.9°C 40.6°F4.8°C 37% 6.0 mph NE9.7 kmh NE 6.0 mph9.7 kmh 30.21 in1023.0 mb 0.00 in0.0 mm 0.00 in0.0 mm 0.00 in0.0 mm
09:40 AM 67.3°F19.6°C 41.5°F5.3°C 39% 5.4 mph NE8.7 kmh NE 5.4 mph8.7 kmh 30.21 in1023.0 mb 0.00 in0.0 mm 0.00 in0.0 mm 0.00 in0.0 mm
09:35 AM 65.8°F18.8°C 43.3°F6.3°C 44% 4.5 mph N7.2 kmh N 5.4 mph8.7 kmh 30.21 in1023.0 mb 0.00 in0.0 mm 0.00 in0.0 mm 0.00 in0.0 mm
09:30 AM 64.8°F18.2°C 42.9°F6.1°C 45% 5.4 mph N8.7 kmh N 5.4 mph8.7 kmh 30.21 in1023.0 mb 0.00 in0.0 mm 0.00 in0.0 mm 0.00 in0.0 mm
09:25 AM 64.4°F18.0°C 42.0°F5.6°C 44% 5.4 mph NW8.7 kmh NW 7.6 mph12.2 kmh 30.21 in1023.0 mb 0.00 in0.0 mm 0.00 in0.0 mm 0.00 in0.0 mm
09:20 AM 64.9°F18.3°C 42.5°F5.8°C 44% 5.4 mph NW8.7 kmh NW 7.6 mph12.2 kmh 30.21 in1023.0 mb 0.00 in0.0 mm 0.00 in0.0 mm 0.00 in0.0 mm
09:15 AM 65.1°F18.4°C 42.7°F5.9°C 44% 4.5 mph N7.2 kmh N 6.9 mph11.1 kmh 30.21 in1023.0 mb 0.00 in0.0 mm 0.00 in0.0 mm 0.00 in0.0 mm
09:10 AM 65.5°F18.6°C 42.4°F5.8°C 43% 5.4 mph NNW8.7 kmh NNW 6.9 mph11.1 kmh 30.21 in1023.0 mb 0.00 in0.0 mm 0.00 in0.0 mm 0.00 in0.0 mm
09:05 AM 64.9°F18.3°C 42.5°F5.8°C 44% 6.0 mph N9.7 kmh N 7.6 mph12.2 kmh 30.21 in1023.0 mb 0.00 in0.0 mm 0.00 in0.0 mm 0.00 in0.0 mm
09:00 AM 64.9°F18.3°C 42.5°F5.8°C 44% 6.0 mph N9.7 kmh N 7.6 mph12.2 kmh 30.20 in1022.7 mb 0.00 in0.0 mm 0.00 in0.0 mm 0.00 in0.0 mm
08:55 AM 64.8°F18.2°C 43.5°F6.4°C 46% 3.8 mph NW6.1 kmh NW 6.9 mph11.1 kmh 30.20 in1022.7 mb 0.00 in0.0 mm 0.00 in0.0 mm 0.00 in0.0 mm
08:50 AM 64.2°F17.9°C 43.0°F6.1°C 46% 3.8 mph NW6.1 kmh NW 8.3 mph13.4 kmh 30.20 in1022.7 mb 0.00 in0.0 mm 0.00 in0.0 mm 0.00 in0.0 mm
08:45 AM 63.9°F17.7°C 43.3°F6.3°C 47% 6.9 mph NW11.1 kmh NW 8.3 mph13.4 kmh 30.20 in1022.7 mb 0.00 in0.0 mm 0.00 in0.0 mm 0.00 in0.0 mm
08:40 AM 63.9°F17.7°C 43.3°F6.3°C 47% 6.0 mph WNW9.7 kmh WNW 7.6 mph12.2 kmh 30.20 in1022.7 mb 0.00 in0.0 mm 0.00 in0.0 mm 0.00 in0.0 mm
08:35 AM 64.0°F17.8°C 44.0°F6.7°C 48% 6.9 mph NW11.1 kmh NW 7.6 mph12.2 kmh 30.20 in1022.7 mb 0.00 in0.0 mm 0.00 in0.0 mm 0.00 in0.0 mm
08:30 AM 63.9°F17.7°C 43.3°F6.3°C 47% 3.1 mph NW5.0 kmh NW 7.6 mph12.2 kmh 30.19 in1022.4 mb 0.00 in0.0 mm 0.00 in0.0 mm 0.00 in0.0 mm
08:25 AM 64.0°F17.8°C 43.4°F6.3°C 47% 7.6 mph W12.2 kmh W 8.3 mph13.4 kmh 30.19 in1022.4 mb 0.00 in0.0 mm 0.00 in0.0 mm 0.00 in0.0 mm
08:20 AM 64.4°F18.0°C 44.3°F6.8°C 48% 6.9 mph W11.1 kmh W 9.2 mph14.8 kmh 30.19 in1022.4 mb 0.00 in0.0 mm 0.00 in0.0 mm 0.00 in0.0 mm
08:15 AM 63.9°F17.7°C 43.3°F6.3°C 47% 8.3 mph WNW13.4 kmh WNW 9.2 mph14.8 kmh 30.18 in1022.0 mb 0.00 in0.0 mm 0.00 in0.0 mm 0.00 in0.0 mm
08:10 AM 64.2°F17.9°C 43.6°F6.4°C 47% 7.6 mph NW12.2 kmh NW 7.6 mph12.2 kmh 30.18 in1022.0 mb 0.00 in0.0 mm 0.00 in0.0 mm 0.00 in0.0 mm
08:05 AM 63.9°F17.7°C 45.4°F7.4°C 51% 6.0 mph W9.7 kmh W 6.9 mph11.1 kmh 30.18 in1022.0 mb 0.00 in0.0 mm 0.00 in0.0 mm 0.00 in0.0 mm
08:00 AM 63.9°F17.7°C 45.4°F7.4°C 51% 6.0 mph W9.7 kmh W 6.9 mph11.1 kmh 30.18 in1022.0 mb 0.00 in0.0 mm 0.00 in0.0 mm 0.00 in0.0 mm
07:55 AM 63.3°F17.4°C 44.9°F7.2°C 51% 3.8 mph W6.1 kmh W 6.9 mph11.1 kmh 30.18 in1022.0 mb 0.00 in0.0 mm 0.00 in0.0 mm 0.00 in0.0 mm
07:50 AM 63.3°F17.4°C 44.9°F7.2°C 51% 6.9 mph W11.1 kmh W 6.9 mph11.1 kmh 30.18 in1022.0 mb 0.00 in0.0 mm 0.00 in0.0 mm 0.00 in0.0 mm
07:45 AM 63.1°F17.3°C 45.2°F7.3°C 52% 4.5 mph W7.2 kmh W 7.6 mph12.2 kmh 30.18 in1022.0 mb 0.00 in0.0 mm 0.00 in0.0 mm 0.00 in0.0 mm
07:40 AM 63.1°F17.3°C 45.2°F7.3°C 52% 3.8 mph W6.1 kmh W 7.6 mph12.2 kmh 30.18 in1022.0 mb 0.00 in0.0 mm 0.00 in0.0 mm 0.00 in0.0 mm
07:35 AM 63.1°F17.3°C 45.2°F7.3°C 52% 4.5 mph W7.2 kmh W 7.6 mph12.2 kmh 30.18 in1022.0 mb 0.00 in0.0 mm 0.00 in0.0 mm 0.00 in0.0 mm
07:30 AM 63.3°F17.4°C 45.4°F7.4°C 52% 5.4 mph W8.7 kmh W 8.3 mph13.4 kmh 30.17 in1021.7 mb 0.00 in0.0 mm 0.00 in0.0 mm 0.00 in0.0 mm
07:25 AM 63.3°F17.4°C 45.4°F7.4°C 52% 6.9 mph W11.1 kmh W 9.2 mph14.8 kmh 30.17 in1021.7 mb 0.00 in0.0 mm 0.00 in0.0 mm 0.00 in0.0 mm
07:20 AM 63.1°F17.3°C 44.7°F7.1°C 51% 5.4 mph SW8.7 kmh SW 9.2 mph14.8 kmh 30.17 in1021.7 mb 0.00 in0.0 mm 0.00 in0.0 mm 0.00 in0.0 mm
07:15 AM 63.7°F17.6°C 45.2°F7.3°C 51% 9.2 mph NW14.8 kmh NW 9.2 mph14.8 kmh 30.17 in1021.7 mb 0.00 in0.0 mm 0.00 in0.0 mm 0.00 in0.0 mm
07:10 AM 64.2°F17.9°C 45.7°F7.6°C 51% 3.8 mph W6.1 kmh W 6.9 mph11.1 kmh 30.17 in1021.7 mb 0.00 in0.0 mm 0.00 in0.0 mm 0.00 in0.0 mm
07:05 AM 64.8°F18.2°C 46.7°F8.2°C 52% 3.1 mph NW5.0 kmh NW 4.5 mph7.2 kmh 30.17 in1021.7 mb 0.00 in0.0 mm 0.00 in0.0 mm 0.00 in0.0 mm
07:00 AM 64.8°F18.2°C 46.7°F8.2°C 52% 3.1 mph NW5.0 kmh NW 6.9 mph11.1 kmh 30.17 in1021.7 mb 0.00 in0.0 mm 0.00 in0.0 mm 0.00 in0.0 mm
06:55 AM 64.4°F18.0°C 46.9°F8.3°C 53% 3.1 mph SW5.0 kmh SW 6.9 mph11.1 kmh 30.17 in1021.7 mb 0.00 in0.0 mm 0.00 in0.0 mm 0.00 in0.0 mm
06:50 AM 64.2°F17.9°C 47.7°F8.7°C 55% 5.4 mph NW8.7 kmh NW 6.0 mph9.7 kmh 30.16 in1021.3 mb 0.00 in0.0 mm 0.00 in0.0 mm 0.00 in0.0 mm
06:45 AM 63.7°F17.6°C 48.2°F9.0°C 57% 4.5 mph W7.2 kmh W 6.9 mph11.1 kmh 30.16 in1021.3 mb 0.00 in0.0 mm 0.00 in0.0 mm 0.00 in0.0 mm
06:40 AM 63.1°F17.3°C 48.1°F8.9°C 58% 6.0 mph SW9.7 kmh SW 9.2 mph14.8 kmh 30.16 in1021.3 mb 0.00 in0.0 mm 0.00 in0.0 mm 0.00 in0.0 mm
06:35 AM 62.6°F17.0°C 47.6°F8.7°C 58% 6.0 mph S9.7 kmh S 9.2 mph14.8 kmh 30.16 in1021.3 mb 0.00 in0.0 mm 0.00 in0.0 mm 0.00 in0.0 mm
06:30 AM 62.6°F17.0°C 48.1°F8.9°C 59% 6.9 mph SW11.1 kmh SW 7.6 mph12.2 kmh 30.16 in1021.3 mb 0.00 in0.0 mm 0.00 in0.0 mm 0.00 in0.0 mm
06:25 AM 62.4°F16.9°C 48.4°F9.1°C 60% 4.5 mph SW7.2 kmh SW 7.6 mph12.2 kmh 30.16 in1021.3 mb 0.00 in0.0 mm 0.00 in0.0 mm 0.00 in0.0 mm
06:20 AM 62.1°F16.7°C 48.5°F9.2°C 61% 5.4 mph SSW8.7 kmh SSW 7.6 mph12.2 kmh 30.16 in1021.3 mb 0.00 in0.0 mm 0.00 in0.0 mm 0.00 in0.0 mm
06:15 AM 61.9°F16.6°C 48.3°F9.1°C 61% 4.5 mph S7.2 kmh S 6.0 mph9.7 kmh 30.16 in1021.3 mb 0.00 in0.0 mm 0.00 in0.0 mm 0.00 in0.0 mm
06:10 AM 61.9°F16.6°C 48.3°F9.1°C 61% 4.5 mph S7.2 kmh S 4.5 mph7.2 kmh 30.16 in1021.3 mb 0.00 in0.0 mm 0.00 in0.0 mm 0.00 in0.0 mm
06:05 AM 62.1°F16.7°C 49.3°F9.6°C 63% 3.8 mph S6.1 kmh S 4.5 mph7.2 kmh 30.15 in1021.0 mb 0.00 in0.0 mm 0.00 in0.0 mm 0.00 in0.0 mm
06:00 AM 62.1°F16.7°C 49.3°F9.6°C 63% 3.8 mph S6.1 kmh S 4.5 mph7.2 kmh 30.15 in1021.0 mb 0.00 in0.0 mm 0.00 in0.0 mm 0.00 in0.0 mm
05:55 AM 62.2°F16.8°C 50.3°F10.2°C 65% 4.5 mph SW7.2 kmh SW 4.5 mph7.2 kmh 30.15 in1021.0 mb 0.00 in0.0 mm 0.00 in0.0 mm 0.00 in0.0 mm
05:50 AM 62.8°F17.1°C 53.3°F11.8°C 71% 2.2 mph S3.5 kmh S 3.1 mph5.0 kmh 30.15 in1021.0 mb 0.00 in0.0 mm 0.00 in0.0 mm 0.00 in0.0 mm
05:45 AM 62.4°F16.9°C 53.7°F12.1°C 73% Calm Calm 1.6 mph2.6 kmh 30.15 in1021.0 mb 0.00 in0.0 mm 0.00 in0.0 mm 0.00 in0.0 mm
05:40 AM 61.9°F16.6°C 53.5°F11.9°C 74% 0.7 mph SE1.1 kmh SE 1.6 mph2.6 kmh 30.15 in1021.0 mb 0.00 in0.0 mm 0.00 in0.0 mm 0.00 in0.0 mm
05:35 AM 61.3°F16.3°C 53.4°F11.9°C 75% 1.6 mph SW2.6 kmh SW 2.2 mph3.5 kmh 30.15 in1021.0 mb 0.00 in0.0 mm 0.00 in0.0 mm 0.00 in0.0 mm
05:30 AM 60.8°F16.0°C 52.8°F11.6°C 75% 1.6 mph S2.6 kmh S 2.2 mph3.5 kmh 30.14 in1020.7 mb 0.00 in0.0 mm 0.00 in0.0 mm 0.00 in0.0 mm
05:25 AM 60.3°F15.7°C 52.3°F11.3°C 75% 0.7 mph S1.1 kmh S 2.2 mph3.5 kmh 30.15 in1021.0 mb 0.00 in0.0 mm 0.00 in0.0 mm 0.00 in0.0 mm
05:20 AM 59.7°F15.4°C 51.8°F11.0°C 75% 1.6 mph S2.6 kmh S 2.2 mph3.5 kmh 30.15 in1021.0 mb 0.00 in0.0 mm 0.00 in0.0 mm 0.00 in0.0 mm
05:15 AM 59.4°F15.2°C 51.1°F10.6°C 74% Calm Calm 1.6 mph2.6 kmh 30.14 in1020.7 mb 0.00 in0.0 mm 0.00 in0.0 mm 0.00 in0.0 mm
05:10 AM 59.0°F15.0°C 50.7°F10.4°C 74% Calm Calm 1.6 mph2.6 kmh 30.15 in1021.0 mb 0.00 in0.0 mm 0.00 in0.0 mm 0.00 in0.0 mm
05:05 AM 58.3°F14.6°C 50.0°F10.0°C 74% 1.6 mph SW2.6 kmh SW 3.8 mph6.1 kmh 30.14 in1020.7 mb 0.00 in0.0 mm 0.00 in0.0 mm 0.00 in0.0 mm
05:00 AM 58.3°F14.6°C 50.0°F10.0°C 74% 1.6 mph SW2.6 kmh SW 3.8 mph6.1 kmh 30.14 in1020.7 mb 0.00 in0.0 mm 0.00 in0.0 mm 0.00 in0.0 mm
04:55 AM 58.1°F14.5°C 49.9°F9.9°C 74% 3.1 mph S5.0 kmh S 3.8 mph6.1 kmh 30.14 in1020.7 mb 0.00 in0.0 mm 0.00 in0.0 mm 0.00 in0.0 mm
04:50 AM 58.1°F14.5°C 49.9°F9.9°C 74% 2.2 mph S3.5 kmh S 3.8 mph6.1 kmh 30.14 in1020.7 mb 0.00 in0.0 mm 0.00 in0.0 mm 0.00 in0.0 mm
04:45 AM 57.9°F14.4°C 49.3°F9.6°C 73% 2.2 mph S3.5 kmh S 3.8 mph6.1 kmh 30.14 in1020.7 mb 0.00 in0.0 mm 0.00 in0.0 mm 0.00 in0.0 mm
04:40 AM 58.1°F14.5°C 49.5°F9.7°C 73% 2.2 mph S3.5 kmh S 4.5 mph7.2 kmh 30.14 in1020.7 mb 0.00 in0.0 mm 0.00 in0.0 mm 0.00 in0.0 mm
04:35 AM 58.1°F14.5°C 49.5°F9.7°C 73% 3.8 mph S6.1 kmh S 5.4 mph8.7 kmh 30.14 in1020.7 mb 0.00 in0.0 mm 0.00 in0.0 mm 0.00 in0.0 mm
04:30 AM 58.1°F14.5°C 49.5°F9.7°C 73% 3.1 mph N5.0 kmh N 5.4 mph8.7 kmh 30.14 in1020.7 mb 0.00 in0.0 mm 0.00 in0.0 mm 0.00 in0.0 mm
04:25 AM 57.9°F14.4°C 49.3°F9.6°C 73% 3.8 mph S6.1 kmh S 4.5 mph7.2 kmh 30.13 in1020.3 mb 0.00 in0.0 mm 0.00 in0.0 mm 0.00 in0.0 mm
04:20 AM 58.1°F14.5°C 49.5°F9.7°C 73% 3.1 mph S5.0 kmh S 5.4 mph8.7 kmh 30.13 in1020.3 mb 0.00 in0.0 mm 0.00 in0.0 mm 0.00 in0.0 mm
04:15 AM 58.3°F14.6°C 49.7°F9.8°C 73% 3.8 mph SW6.1 kmh SW 5.4 mph8.7 kmh 30.13 in1020.3 mb 0.00 in0.0 mm 0.00 in0.0 mm 0.00 in0.0 mm
04:10 AM 58.5°F14.7°C 49.5°F9.7°C 72% 3.8 mph SW6.1 kmh SW 3.8 mph6.1 kmh 30.14 in1020.7 mb 0.00 in0.0 mm 0.00 in0.0 mm 0.00 in0.0 mm
04:05 AM 58.3°F14.6°C 48.9°F9.4°C 71% 2.2 mph S3.5 kmh S 5.4 mph8.7 kmh 30.13 in1020.3 mb 0.00 in0.0 mm 0.00 in0.0 mm 0.00 in0.0 mm
04:00 AM 58.3°F14.6°C 48.9°F9.4°C 71% 2.2 mph S3.5 kmh S 6.9 mph11.1 kmh 30.13 in1020.3 mb 0.00 in0.0 mm 0.00 in0.0 mm 0.00 in0.0 mm
03:55 AM 58.5°F14.7°C 49.1°F9.5°C 71% 3.1 mph SE5.0 kmh SE 6.9 mph11.1 kmh 30.12 in1020.0 mb 0.00 in0.0 mm 0.00 in0.0 mm 0.00 in0.0 mm
03:50 AM 58.5°F14.7°C 49.1°F9.5°C 71% 6.9 mph S11.1 kmh S 6.9 mph11.1 kmh 30.13 in1020.3 mb 0.00 in0.0 mm 0.00 in0.0 mm 0.00 in0.0 mm
03:45 AM 58.5°F14.7°C 48.7°F9.3°C 70% 4.5 mph S7.2 kmh S 4.5 mph7.2 kmh 30.13 in1020.3 mb 0.00 in0.0 mm 0.00 in0.0 mm 0.00 in0.0 mm
03:40 AM 58.6°F14.8°C 48.9°F9.4°C 70% 3.1 mph SSW5.0 kmh SSW 4.5 mph7.2 kmh 30.12 in1020.0 mb 0.00 in0.0 mm 0.00 in0.0 mm 0.00 in0.0 mm
03:35 AM 58.6°F14.8°C 48.9°F9.4°C 70% 3.1 mph S5.0 kmh S 4.5 mph7.2 kmh 30.12 in1020.0 mb 0.00 in0.0 mm 0.00 in0.0 mm 0.00 in0.0 mm
03:30 AM 58.8°F14.9°C 49.1°F9.5°C 70% 4.5 mph SE7.2 kmh SE 4.5 mph7.2 kmh 30.12 in1020.0 mb 0.00 in0.0 mm 0.00 in0.0 mm 0.00 in0.0 mm
03:25 AM 59.0°F15.0°C 48.9°F9.4°C 69% 3.1 mph S5.0 kmh S 4.5 mph7.2 kmh 30.12 in1020.0 mb 0.00 in0.0 mm 0.00 in0.0 mm 0.00 in0.0 mm
03:20 AM 59.2°F15.1°C 49.0°F9.4°C 69% 2.2 mph S3.5 kmh S 4.5 mph7.2 kmh 30.12 in1020.0 mb 0.00 in0.0 mm 0.00 in0.0 mm 0.00 in0.0 mm
03:15 AM 59.4°F15.2°C 49.6°F9.8°C 70% 3.8 mph SW6.1 kmh SW 5.4 mph8.7 kmh 30.12 in1020.0 mb 0.00 in0.0 mm 0.00 in0.0 mm 0.00 in0.0 mm
03:10 AM 59.4°F15.2°C 49.2°F9.6°C 69% 3.1 mph SW5.0 kmh SW 5.4 mph8.7 kmh 30.12 in1020.0 mb 0.00 in0.0 mm 0.00 in0.0 mm 0.00 in0.0 mm
03:05 AM 59.4°F15.2°C 49.2°F9.6°C 69% 4.5 mph S7.2 kmh S 4.5 mph7.2 kmh 30.12 in1020.0 mb 0.00 in0.0 mm 0.00 in0.0 mm 0.00 in0.0 mm
03:00 AM 59.4°F15.2°C 49.2°F9.6°C 69% 4.5 mph S7.2 kmh S 5.4 mph8.7 kmh 30.11 in1019.6 mb 0.00 in0.0 mm 0.00 in0.0 mm 0.00 in0.0 mm
02:55 AM 59.4°F15.2°C 49.2°F9.6°C 69% 4.5 mph S7.2 kmh S 5.4 mph8.7 kmh 30.11 in1019.6 mb 0.00 in0.0 mm 0.00 in0.0 mm 0.00 in0.0 mm
02:50 AM 59.5°F15.3°C 49.4°F9.7°C 69% 4.5 mph SW7.2 kmh SW 7.6 mph12.2 kmh 30.11 in1019.6 mb 0.00 in0.0 mm 0.00 in0.0 mm 0.00 in0.0 mm
02:45 AM 59.5°F15.3°C 49.4°F9.7°C 69% 5.4 mph SW8.7 kmh SW 8.3 mph13.4 kmh 30.11 in1019.6 mb 0.00 in0.0 mm 0.00 in0.0 mm 0.00 in0.0 mm
02:40 AM 59.5°F15.3°C 49.8°F9.9°C 70% 6.9 mph SW11.1 kmh SW 8.3 mph13.4 kmh 30.11 in1019.6 mb 0.00 in0.0 mm 0.00 in0.0 mm 0.00 in0.0 mm
02:35 AM 59.5°F15.3°C 49.8°F9.9°C 70% 7.6 mph SSW12.2 kmh SSW 8.3 mph13.4 kmh 30.11 in1019.6 mb 0.00 in0.0 mm 0.00 in0.0 mm 0.00 in0.0 mm
02:30 AM 59.5°F15.3°C 49.8°F9.9°C 70% 8.3 mph SW13.4 kmh SW 8.3 mph13.4 kmh 30.11 in1019.6 mb 0.00 in0.0 mm 0.00 in0.0 mm 0.00 in0.0 mm
02:25 AM 59.4°F15.2°C 49.6°F9.8°C 70% 6.0 mph S9.7 kmh S 7.6 mph12.2 kmh 30.11 in1019.6 mb 0.00 in0.0 mm 0.00 in0.0 mm 0.00 in0.0 mm
02:20 AM 59.4°F15.2°C 49.6°F9.8°C 70% 5.4 mph SW8.7 kmh SW 9.8 mph15.8 kmh 30.11 in1019.6 mb 0.00 in0.0 mm 0.00 in0.0 mm 0.00 in0.0 mm
02:15 AM 59.2°F15.1°C 49.4°F9.7°C 70% 5.4 mph SW8.7 kmh SW 9.8 mph15.8 kmh 30.11 in1019.6 mb 0.00 in0.0 mm 0.00 in0.0 mm 0.00 in0.0 mm
02:10 AM 59.4°F15.2°C 49.2°F9.6°C 69% 3.8 mph SW6.1 kmh SW 5.4 mph8.7 kmh 30.10 in1019.3 mb 0.00 in0.0 mm 0.00 in0.0 mm 0.00 in0.0 mm
02:05 AM 59.0°F15.0°C 48.5°F9.2°C 68% 5.4 mph S8.7 kmh S 5.4 mph8.7 kmh 30.11 in1019.6 mb 0.00 in0.0 mm 0.00 in0.0 mm 0.00 in0.0 mm
02:00 AM 59.0°F15.0°C 48.5°F9.2°C 68% 5.4 mph S8.7 kmh S 5.4 mph8.7 kmh 30.11 in1019.6 mb 0.00 in0.0 mm 0.00 in0.0 mm 0.00 in0.0 mm
01:55 AM 59.2°F15.1°C 48.6°F9.2°C 68% 3.8 mph SW6.1 kmh SW 5.4 mph8.7 kmh 30.10 in1019.3 mb 0.00 in0.0 mm 0.00 in0.0 mm 0.00 in0.0 mm
01:50 AM 59.2°F15.1°C 48.6°F9.2°C 68% 4.5 mph S7.2 kmh S 8.3 mph13.4 kmh 30.10 in1019.3 mb 0.00 in0.0 mm 0.00 in0.0 mm 0.00 in0.0 mm
01:45 AM 59.4°F15.2°C 48.8°F9.3°C 68% 4.5 mph S7.2 kmh S 8.3 mph13.4 kmh 30.10 in1019.3 mb 0.00 in0.0 mm 0.00 in0.0 mm 0.00 in0.0 mm
01:40 AM 59.2°F15.1°C 48.6°F9.2°C 68% 8.3 mph S13.4 kmh S 8.3 mph13.4 kmh 30.10 in1019.3 mb 0.00 in0.0 mm 0.00 in0.0 mm 0.00 in0.0 mm
01:35 AM 59.2°F15.1°C 48.6°F9.2°C 68% 6.0 mph SW9.7 kmh SW 6.9 mph11.1 kmh 30.10 in1019.3 mb 0.00 in0.0 mm 0.00 in0.0 mm 0.00 in0.0 mm
01:30 AM 59.0°F15.0°C 48.1°F8.9°C 67% 5.4 mph S8.7 kmh S 6.9 mph11.1 kmh 30.10 in1019.3 mb 0.00 in0.0 mm 0.00 in0.0 mm 0.00 in0.0 mm
01:25 AM 59.0°F15.0°C 47.7°F8.7°C 66% 4.5 mph S7.2 kmh S 6.0 mph9.7 kmh 30.10 in1019.3 mb 0.00 in0.0 mm 0.00 in0.0 mm 0.00 in0.0 mm
01:20 AM 59.0°F15.0°C 47.7°F8.7°C 66% 5.4 mph S8.7 kmh S 5.4 mph8.7 kmh 30.09 in1019.0 mb 0.00 in0.0 mm 0.00 in0.0 mm 0.00 in0.0 mm
01:15 AM 59.0°F15.0°C 47.3°F8.5°C 65% 4.5 mph S7.2 kmh S 6.0 mph9.7 kmh 30.10 in1019.3 mb 0.00 in0.0 mm 0.00 in0.0 mm 0.00 in0.0 mm
01:10 AM 59.0°F15.0°C 47.3°F8.5°C 65% 4.5 mph SW7.2 kmh SW 6.0 mph9.7 kmh 30.09 in1019.0 mb 0.00 in0.0 mm 0.00 in0.0 mm 0.00 in0.0 mm
01:05 AM 59.2°F15.1°C 46.6°F8.1°C 63% 2.2 mph S3.5 kmh S 5.4 mph8.7 kmh 30.09 in1019.0 mb 0.00 in0.0 mm 0.00 in0.0 mm 0.00 in0.0 mm
01:00 AM 59.2°F15.1°C 46.6°F8.1°C 63% 2.2 mph S3.5 kmh S 5.4 mph8.7 kmh 30.09 in1019.0 mb 0.00 in0.0 mm 0.00 in0.0 mm 0.00 in0.0 mm
12:55 AM 59.4°F15.2°C 46.4°F8.0°C 62% 3.1 mph S5.0 kmh S 5.4 mph8.7 kmh 30.09 in1019.0 mb 0.00 in0.0 mm 0.00 in0.0 mm 0.00 in0.0 mm
12:50 AM 59.5°F15.3°C 46.1°F7.8°C 61% 3.1 mph S5.0 kmh S 5.4 mph8.7 kmh 30.09 in1019.0 mb 0.00 in0.0 mm 0.00 in0.0 mm 0.00 in0.0 mm
12:45 AM 59.7°F15.4°C 46.3°F7.9°C 61% 3.1 mph S5.0 kmh S 6.9 mph11.1 kmh 30.09 in1019.0 mb 0.00 in0.0 mm 0.00 in0.0 mm 0.00 in0.0 mm
12:40 AM 59.7°F15.4°C 45.8°F7.7°C 60% 5.4 mph S8.7 kmh S 6.9 mph11.1 kmh 30.09 in1019.0 mb 0.00 in0.0 mm 0.00 in0.0 mm 0.00 in0.0 mm
12:35 AM 59.9°F15.5°C 45.6°F7.6°C 59% 0.7 mph S1.1 kmh S 6.0 mph9.7 kmh 30.09 in1019.0 mb 0.00 in0.0 mm 0.00 in0.0 mm 0.00 in0.0 mm
12:30 AM 60.1°F15.6°C 45.7°F7.6°C 59% 4.5 mph SE7.2 kmh SE 7.6 mph12.2 kmh 30.09 in1019.0 mb 0.00 in0.0 mm 0.00 in0.0 mm 0.00 in0.0 mm
12:25 AM 60.4°F15.8°C 46.1°F7.8°C 59% 5.4 mph S8.7 kmh S 7.6 mph12.2 kmh 30.09 in1019.0 mb 0.00 in0.0 mm 0.00 in0.0 mm 0.00 in0.0 mm
12:20 AM 60.4°F15.8°C 45.6°F7.6°C 58% 6.0 mph SW9.7 kmh SW 6.9 mph11.1 kmh 30.08 in1018.6 mb 0.00 in0.0 mm 0.00 in0.0 mm 0.00 in0.0 mm
12:15 AM 60.4°F15.8°C 45.1°F7.3°C 57% 3.8 mph S6.1 kmh S 6.9 mph11.1 kmh 30.08 in1018.6 mb 0.00 in0.0 mm 0.00 in0.0 mm 0.00 in0.0 mm
12:10 AM 60.6°F15.9°C 45.3°F7.4°C 57% 3.8 mph S6.1 kmh S 6.9 mph11.1 kmh 30.08 in1018.6 mb 0.00 in0.0 mm 0.00 in0.0 mm 0.00 in0.0 mm
12:05 AM 60.6°F15.9°C 45.3°F7.4°C 57% 6.0 mph SW9.7 kmh SW 6.0 mph9.7 kmh 30.08 in1018.6 mb 0.00 in0.0 mm 0.00 in0.0 mm 0.00 in0.0 mm
12:00 AM 60.6°F15.9°C 45.3°F7.4°C 57% 6.0 mph SW9.7 kmh SW 6.0 mph9.7 kmh 30.07 in1018.3 mb 0.00 in0.0 mm 0.00 in0.0 mm 0.00 in0.0 mm